Time;durP1;ratioP1;P1;durP2;ratioP2;P2;SDS_P1;SDS_P2;PMS_P1;PMS_P2;Temp;Humidity;BMP_temperature;BMP_pressure;BME280_temperature;BME280_humidity;BME280_pressure;Samples;Min_cycle;Max_cycle;Signal;HPM_P1;HPM_P2
2021/05/17 00:01:04;;;;;;;2.95;1.42;;;;;;;;;;4992862;28;20382;-58
2021/05/17 00:03:31;;;;;;;2.45;1.10;;;;;;;;;;4994548;28;20118;-58
2021/05/17 00:05:57;;;;;;;2.70;1.10;;;;;;;;;;4994223;28;20026;-58
2021/05/17 00:08:23;;;;;;;2.13;0.80;;;;;;;;;;4993798;28;20508;-58
2021/05/17 00:10:50;;;;;;;2.78;0.80;;;;;;;;;;4993039;28;20026;-58
2021/05/17 00:13:16;;;;;;;1.77;0.90;;;;;;;;;;4994076;28;20425;-58
2021/05/17 00:15:43;;;;;;;1.77;1.13;;;;;;;;;;4992732;28;20030;-59
2021/05/17 00:18:09;;;;;;;2.00;1.02;;;;;;;;;;4993764;28;20093;-58
2021/05/17 00:20:35;;;;;;;2.03;1.05;;;;;;;;;;4994466;28;20100;-59
2021/05/17 00:23:02;;;;;;;2.75;0.90;;;;;;;;;;4992487;28;20062;-59
2021/05/17 00:25:28;;;;;;;1.52;0.88;;;;;;;;;;4993876;28;20023;-58
2021/05/17 00:27:55;;;;;;;1.38;0.90;;;;;;;;;;4993835;28;20466;-58
2021/05/17 00:30:23;;;;;;;2.00;1.00;;;;;;;;;;4993903;28;20030;-58
2021/05/17 00:32:49;;;;;;;1.90;0.90;;;;;;;;;;4992215;28;20462;-59
2021/05/17 00:35:16;;;;;;;2.33;1.20;;;;;;;;;;4992262;28;20022;-58
2021/05/17 00:37:42;;;;;;;2.03;1.05;;;;;;;;;;4993878;28;20382;-58
2021/05/17 00:40:09;;;;;;;1.20;0.80;;;;;;;;;;4993727;28;20022;-58
2021/05/17 00:42:36;;;;;;;2.00;1.02;;;;;;;;;;4993257;28;20526;-59
2021/05/17 00:45:03;;;;;;;1.23;0.90;;;;;;;;;;4993647;28;20023;-59
2021/05/17 00:47:31;;;;;;;2.10;1.15;;;;;;;;;;4992519;28;20026;-58
2021/05/17 00:49:58;;;;;;;1.77;1.10;;;;;;;;;;4993056;28;20026;-58
2021/05/17 00:52:26;;;;;;;1.23;0.98;;;;;;;;;;4993331;28;20061;-58
2021/05/17 00:54:53;;;;;;;1.83;1.17;;;;;;;;;;4993570;28;20026;-58
2021/05/17 00:57:19;;;;;;;3.45;1.30;;;;;;;;;;4993672;28;20037;-59
2021/05/17 00:59:45;;;;;;;2.78;1.20;;;;;;;;;;4991489;28;20027;-58
2021/05/17 01:02:11;;;;;;;2.17;1.52;;;;;;;;;;5001384;28;20048;-59
2021/05/17 01:04:38;;;;;;;1.58;1.13;;;;;;;;;;4993407;28;20527;-59
2021/05/17 01:07:04;;;;;;;2.92;1.50;;;;;;;;;;4992148;28;20126;-59
2021/05/17 01:09:32;;;;;;;2.78;1.42;;;;;;;;;;4993415;28;20030;-58
2021/05/17 01:11:59;;;;;;;1.92;1.40;;;;;;;;;;4991819;28;20053;-59
2021/05/17 01:14:26;;;;;;;1.73;1.13;;;;;;;;;;4992659;28;20034;-59
2021/05/17 01:16:56;;;;;;;2.33;1.50;;;;;;;;;;4991667;28;20026;-58
2021/05/17 01:19:40;;;;;;;3.30;1.38;;;;;;;;;;4993401;28;20056;-58
2021/05/17 01:22:34;;;;;;;2.58;1.60;;;;;;;;;;4993020;28;20040;-58
2021/05/17 01:24:53;;;;;;;2.30;1.60;;;;;;;;;;4992546;28;20315;-59
2021/05/17 01:27:20;;;;;;;1.77;1.35;;;;;;;;;;4991475;28;20125;-58
2021/05/17 01:29:46;;;;;;;2.50;1.38;;;;;;;;;;4993166;28;20564;-58
2021/05/17 01:32:12;;;;;;;2.53;1.20;;;;;;;;;;4992942;28;20053;-58
2021/05/17 01:34:39;;;;;;;2.67;1.42;;;;;;;;;;4992467;28;20438;-58
2021/05/17 01:37:08;;;;;;;3.10;1.50;;;;;;;;;;4991291;28;20029;-58
2021/05/17 01:39:35;;;;;;;2.47;1.63;;;;;;;;;;4991706;28;20574;-58
2021/05/17 01:42:01;;;;;;;2.45;1.40;;;;;;;;;;4992212;28;20054;-58
2021/05/17 01:44:29;;;;;;;3.85;1.55;;;;;;;;;;4991475;28;20451;-58
2021/05/17 01:46:58;;;;;;;2.65;1.45;;;;;;;;;;4992543;28;20037;-58
2021/05/17 01:49:26;;;;;;;2.80;1.35;;;;;;;;;;4991279;28;20034;-58
2021/05/17 01:51:52;;;;;;;2.83;1.45;;;;;;;;;;4972099;28;20035;-58
2021/05/17 01:54:19;;;;;;;2.95;1.90;;;;;;;;;;4972002;28;20023;-58
2021/05/17 01:56:45;;;;;;;3.47;1.55;;;;;;;;;;4991725;28;20044;-58
2021/05/17 01:59:12;;;;;;;3.80;1.67;;;;;;;;;;4992875;28;20022;-58
2021/05/17 02:01:38;;;;;;;3.80;1.60;;;;;;;;;;4992368;28;20390;-58
2021/05/17 02:04:05;;;;;;;5.20;1.67;;;;;;;;;;4992939;28;20097;-57
2021/05/17 02:06:32;;;;;;;3.42;1.90;;;;;;;;;;4990625;28;20027;-57
2021/05/17 02:08:58;;;;;;;3.67;1.85;;;;;;;;;;4992746;28;20061;-58
2021/05/17 02:11:25;;;;;;;4.05;1.85;;;;;;;;;;4994829;28;20045;-58
2021/05/17 02:13:52;;;;;;;4.70;2.45;;;;;;;;;;4996612;28;20019;-59
2021/05/17 02:16:19;;;;;;;2.97;2.13;;;;;;;;;;4996193;28;20105;-58
2021/05/17 02:18:47;;;;;;;4.82;3.13;;;;;;;;;;4995269;28;20023;-58
2021/05/17 02:21:14;;;;;;;3.90;2.53;;;;;;;;;;4995980;28;20405;-58
2021/05/17 02:23:40;;;;;;;4.63;2.60;;;;;;;;;;4996520;28;20089;-59
2021/05/17 02:26:07;;;;;;;4.25;2.65;;;;;;;;;;4995774;28;20058;-58
2021/05/17 02:28:38;;;;;;;3.83;2.67;;;;;;;;;;4996340;28;20034;-58
2021/05/17 02:31:07;;;;;;;5.18;2.30;;;;;;;;;;4995949;28;20030;-58
2021/05/17 02:33:34;;;;;;;5.75;3.40;;;;;;;;;;4996279;28;20030;-58
2021/05/17 02:36:00;;;;;;;2.97;2.50;;;;;;;;;;4995910;28;20113;-58
2021/05/17 02:38:26;;;;;;;3.85;2.45;;;;;;;;;;4995755;28;20188;-58
2021/05/17 02:40:54;;;;;;;6.25;4.57;;;;;;;;;;4994451;28;20026;-58
2021/05/17 02:43:23;;;;;;;5.15;3.45;;;;;;;;;;4995630;28;20129;-58
2021/05/17 02:45:50;;;;;;;6.22;4.10;;;;;;;;;;4996023;28;20081;-58
2021/05/17 02:48:17;;;;;;;7.00;4.30;;;;;;;;;;4995812;28;20026;-58
2021/05/17 02:50:45;;;;;;;11.63;6.60;;;;;;;;;;4995734;28;20037;-58
2021/05/17 02:53:30;;;;;;;9.43;6.95;;;;;;;;;;4994700;28;20020;-58
2021/05/17 02:55:57;;;;;;;9.20;7.50;;;;;;;;;;4994289;28;20026;-58
2021/05/17 02:58:24;;;;;;;12.88;9.00;;;;;;;;;;4994209;28;20022;-58
2021/05/17 03:00:51;;;;;;;16.17;9.57;;;;;;;;;;4995528;28;20018;-58
2021/05/17 03:03:18;;;;;;;19.02;12.50;;;;;;;;;;4995786;28;20450;-58
2021/05/17 03:05:45;;;;;;;14.98;10.27;;;;;;;;;;4995104;28;20121;-58
2021/05/17 03:08:12;;;;;;;18.00;10.57;;;;;;;;;;4995334;28;20116;-57
2021/05/17 03:10:43;;;;;;;15.27;10.35;;;;;;;;;;4995255;28;20433;-58
2021/05/17 03:13:09;;;;;;;16.17;10.45;;;;;;;;;;4995407;28;20018;-58
2021/05/17 03:15:36;;;;;;;14.73;11.18;;;;;;;;;;4995542;28;20026;-57
2021/05/17 03:18:02;;;;;;;15.60;11.88;;;;;;;;;;4993873;28;20441;-58
2021/05/17 03:20:29;;;;;;;18.25;13.25;;;;;;;;;;4995061;28;20030;-58
2021/05/17 03:22:56;;;;;;;17.50;11.73;;;;;;;;;;4994574;28;20014;-58
2021/05/17 03:25:24;;;;;;;17.75;12.07;;;;;;;;;;4993667;28;20072;-58
2021/05/17 03:27:50;;;;;;;16.33;12.32;;;;;;;;;;4995020;28;20037;-58
2021/05/17 03:30:17;;;;;;;15.38;12.10;;;;;;;;;;4995126;28;20478;-58
2021/05/17 03:32:43;;;;;;;15.80;11.77;;;;;;;;;;4995242;28;20022;-57
2021/05/17 03:35:09;;;;;;;15.75;12.10;;;;;;;;;;4994978;28;20022;-59
2021/05/17 03:37:36;;;;;;;14.82;11.90;;;;;;;;;;4993443;28;20389;-58
2021/05/17 03:40:03;;;;;;;15.02;10.98;;;;;;;;;;4994947;28;20030;-59
2021/05/17 03:42:29;;;;;;;13.82;10.45;;;;;;;;;;4994888;28;20113;-58
2021/05/17 03:44:55;;;;;;;12.32;10.50;;;;;;;;;;4993273;28;20034;-58
2021/05/17 03:47:21;;;;;;;11.88;10.57;;;;;;;;;;4993276;28;20455;-57
2021/05/17 03:49:47;;;;;;;13.60;10.63;;;;;;;;;;4993554;28;20041;-57
2021/05/17 03:52:13;;;;;;;14.07;10.18;;;;;;;;;;4994628;28;20025;-58
2021/05/17 03:54:40;;;;;;;15.73;11.40;;;;;;;;;;4994445;28;20030;-58
2021/05/17 03:57:06;;;;;;;15.32;11.90;;;;;;;;;;4994903;28;20027;-58
2021/05/17 03:59:33;;;;;;;16.77;13.18;;;;;;;;;;4994648;28;20023;-57
2021/05/17 04:01:59;;;;;;;17.27;13.70;;;;;;;;;;4994167;28;20073;-58
2021/05/17 04:04:27;;;;;;;16.20;13.32;;;;;;;;;;4994338;28;20034;-58
2021/05/17 04:14:50;;;;;;;16.75;13.77;;;;;;;;;;4994245;28;20093;-58
2021/05/17 04:17:16;;;;;;;19.42;14.25;;;;;;;;;;4994499;28;20030;-57
2021/05/17 04:19:42;;;;;;;18.05;14.45;;;;;;;;;;4994102;28;20034;-58
2021/05/17 04:22:08;;;;;;;19.77;15.60;;;;;;;;;;4994349;28;20023;-57
2021/05/17 04:24:34;;;;;;;20.73;15.57;;;;;;;;;;4993467;28;20105;-57
2021/05/17 04:27:01;;;;;;;20.33;14.68;;;;;;;;;;4994173;28;20026;-58
2021/05/17 04:29:27;;;;;;;21.48;15.43;;;;;;;;;;4993766;28;20386;-57
2021/05/17 04:31:53;;;;;;;19.00;15.55;;;;;;;;;;4993578;28;20014;-58
2021/05/17 04:34:20;;;;;;;18.38;14.38;;;;;;;;;;4993791;28;20104;-58
2021/05/17 04:36:46;;;;;;;18.13;13.77;;;;;;;;;;4992732;28;20023;-58
2021/05/17 04:39:12;;;;;;;18.15;14.35;;;;;;;;;;4993189;28;20038;-58
2021/05/17 04:41:38;;;;;;;18.55;14.68;;;;;;;;;;4993192;28;20435;-58
2021/05/17 04:44:05;;;;;;;18.50;14.88;;;;;;;;;;4993494;28;20030;-58
2021/05/17 04:46:31;;;;;;;20.35;15.18;;;;;;;;;;4993861;28;20029;-58
2021/05/17 04:48:57;;;;;;;17.85;14.45;;;;;;;;;;4993321;28;20126;-59
2021/05/17 04:51:24;;;;;;;18.42;13.73;;;;;;;;;;4993494;28;20041;-60
2021/05/17 04:53:53;;;;;;;16.77;13.65;;;;;;;;;;4993501;28;20058;-58
2021/05/17 04:56:20;;;;;;;21.20;14.23;;;;;;;;;;4991911;28;20038;-58
2021/05/17 04:58:46;;;;;;;15.38;12.60;;;;;;;;;;4992321;28;20084;-58
2021/05/17 05:01:12;;;;;;;15.95;12.93;;;;;;;;;;4993081;28;20065;-58
2021/05/17 05:03:39;;;;;;;14.15;12.50;;;;;;;;;;4991981;28;20018;-57
2021/05/17 05:06:05;;;;;;;17.08;12.63;;;;;;;;;;4993129;28;20029;-57
2021/05/17 05:08:31;;;;;;;13.23;11.43;;;;;;;;;;4993338;28;20029;-57
2021/05/17 05:10:57;;;;;;;12.23;10.32;;;;;;;;;;4992906;28;20405;-58
2021/05/17 05:13:23;;;;;;;6.05;5.45;;;;;;;;;;4993294;28;20022;-58
2021/05/17 05:15:53;;;;;;;6.00;4.95;;;;;;;;;;4991572;28;20031;-58
2021/05/17 05:18:20;;;;;;;5.70;5.03;;;;;;;;;;4993295;28;20093;-58
2021/05/17 05:20:46;;;;;;;5.05;4.55;;;;;;;;;;4992805;28;20121;-58
2021/05/17 05:23:13;;;;;;;4.43;3.80;;;;;;;;;;4992810;28;20101;-58
2021/05/17 05:26:15;;;;;;;4.60;3.33;;;;;;;;;;4992888;28;20026;-57
2021/05/17 05:28:49;;;;;;;5.55;3.60;;;;;;;;;;4973547;28;20585;-58
2021/05/17 05:31:26;;;;;;;3.90;3.00;;;;;;;;;;4988847;28;20038;-59
2021/05/17 05:33:52;;;;;;;4.55;3.20;;;;;;;;;;4992418;28;20121;-58
2021/05/17 05:36:18;;;;;;;5.45;3.42;;;;;;;;;;4992561;28;20041;-60
2021/05/17 05:38:44;;;;;;;4.75;4.05;;;;;;;;;;4993020;28;20025;-59
2021/05/17 05:41:11;;;;;;;5.50;4.40;;;;;;;;;;4992771;28;20101;-58
2021/05/17 05:43:37;;;;;;;4.32;3.92;;;;;;;;;;4990777;28;20077;-59
2021/05/17 05:46:03;;;;;;;6.18;5.18;;;;;;;;;;4992503;28;20030;-58
2021/05/17 05:48:29;;;;;;;5.88;4.97;;;;;;;;;;4991677;28;20023;-57
2021/05/17 05:50:56;;;;;;;6.88;5.28;;;;;;;;;;4992563;28;20022;-57
2021/05/17 05:53:22;;;;;;;6.60;5.68;;;;;;;;;;4992853;28;20019;-57
2021/05/17 05:55:48;;;;;;;7.47;5.97;;;;;;;;;;4992602;28;20205;-57
2021/05/17 05:58:15;;;;;;;8.27;6.03;;;;;;;;;;4992946;28;20386;-58
2021/05/17 06:00:42;;;;;;;7.72;5.97;;;;;;;;;;4992278;28;20077;-58
2021/05/17 06:03:09;;;;;;;7.95;7.15;;;;;;;;;;4992756;28;20034;-58
2021/05/17 06:05:35;;;;;;;8.10;7.30;;;;;;;;;;4992183;28;20037;-58
2021/05/17 06:08:02;;;;;;;11.05;8.15;;;;;;;;;;4992995;28;20026;-58
2021/05/17 06:10:29;;;;;;;10.18;7.38;;;;;;;;;;4992492;28;20030;-58
2021/05/17 06:12:57;;;;;;;11.63;8.90;;;;;;;;;;4992779;28;20018;-58
2021/05/17 06:15:23;;;;;;;11.15;9.00;;;;;;;;;;4990663;28;20112;-58
2021/05/17 06:17:50;;;;;;;9.30;8.13;;;;;;;;;;4992772;28;20022;-58
2021/05/17 06:20:16;;;;;;;10.57;7.78;;;;;;;;;;4992467;28;20026;-58
2021/05/17 06:22:43;;;;;;;15.73;8.02;;;;;;;;;;4992219;28;20137;-57
2021/05/17 06:25:10;;;;;;;7.95;7.10;;;;;;;;;;4992356;28;20019;-58
2021/05/17 06:27:37;;;;;;;7.68;6.00;;;;;;;;;;4992364;28;20030;-58
2021/05/17 06:30:09;;;;;;;9.10;6.05;;;;;;;;;;4992017;28;20557;-57
2021/05/17 06:32:36;;;;;;;5.45;4.68;;;;;;;;;;4989654;28;20025;-58
2021/05/17 06:35:06;;;;;;;7.57;4.93;;;;;;;;;;4992049;28;20038;-58
2021/05/17 06:37:33;;;;;;;7.00;4.90;;;;;;;;;;4992043;28;20121;-59
2021/05/17 06:39:59;;;;;;;6.68;3.80;;;;;;;;;;4992117;28;20030;-57
2021/05/17 06:42:25;;;;;;;7.40;4.10;;;;;;;;;;4990437;28;20137;-58
2021/05/17 06:44:52;;;;;;;4.72;4.03;;;;;;;;;;4991860;28;20034;-58
2021/05/17 06:47:18;;;;;;;4.97;4.00;;;;;;;;;;4978882;28;20797;-58
2021/05/17 06:49:46;;;;;;;5.22;3.63;;;;;;;;;;4991833;28;20029;-58
2021/05/17 06:52:13;;;;;;;3.65;3.05;;;;;;;;;;4990680;28;20034;-58
2021/05/17 06:54:41;;;;;;;4.75;3.20;;;;;;;;;;4984917;28;20035;-57
2021/05/17 06:57:25;;;;;;;3.10;2.60;;;;;;;;;;4971133;28;20031;-59
2021/05/17 06:59:58;;;;;;;5.00;2.70;;;;;;;;;;4981414;28;20034;-59
2021/05/17 07:02:24;;;;;;;5.13;2.87;;;;;;;;;;4985502;28;22072;-58
2021/05/17 07:04:51;;;;;;;3.50;1.88;;;;;;;;;;4983466;28;20101;-58
2021/05/17 07:07:28;;;;;;;3.17;1.77;;;;;;;;;;4975579;28;20655;-58
2021/05/17 07:12:39;;;;;;;2.08;1.40;;;;;;;;;;4983833;28;20068;-58
2021/05/17 07:15:05;;;;;;;3.55;2.03;;;;;;;;;;4983614;28;20025;-58
2021/05/17 07:17:32;;;;;;;5.85;1.77;;;;;;;;;;4982427;28;20033;-54
2021/05/17 07:19:58;;;;;;;1.92;1.05;;;;;;;;;;4985583;28;20034;-58
2021/05/17 07:25:09;;;;;;;3.15;1.30;;;;;;;;;;5002854;28;20450;-57
2021/05/17 07:27:36;;;;;;;2.05;1.35;;;;;;;;;;4993049;28;20018;-58
2021/05/17 07:30:03;;;;;;;3.20;1.80;;;;;;;;;;4988915;28;20581;-57
2021/05/17 07:32:29;;;;;;;3.10;1.50;;;;;;;;;;4986190;28;20539;-58
2021/05/17 07:34:56;;;;;;;2.47;1.77;;;;;;;;;;4994669;28;20498;-59
2021/05/17 07:37:22;;;;;;;3.25;1.80;;;;;;;;;;4993721;28;20019;-58
2021/05/17 07:39:49;;;;;;;3.55;1.83;;;;;;;;;;4995047;28;20349;-58
2021/05/17 07:42:15;;;;;;;2.03;1.63;;;;;;;;;;4994849;28;20050;-58
2021/05/17 07:44:41;;;;;;;4.00;1.60;;;;;;;;;;4995233;28;20022;-58
2021/05/17 07:47:07;;;;;;;3.97;1.73;;;;;;;;;;4994818;28;20026;-59
2021/05/17 07:49:44;;;;;;;1.73;1.52;;;;;;;;;;4994945;28;20037;-58
2021/05/17 07:52:10;;;;;;;4.38;1.77;;;;;;;;;;4989673;28;20447;-56
2021/05/17 07:54:37;;;;;;;3.13;1.58;;;;;;;;;;4989673;28;20026;-57
2021/05/17 07:57:04;;;;;;;4.38;2.22;;;;;;;;;;4991957;28;20400;-58
2021/05/17 07:59:32;;;;;;;6.07;3.05;;;;;;;;;;4983594;28;20030;-57
2021/05/17 08:01:58;;;;;;;3.42;2.85;;;;;;;;;;4986614;28;20044;-58
2021/05/17 08:04:25;;;;;;;5.30;3.40;;;;;;;;;;4963617;28;20038;-58
2021/05/17 08:06:51;;;;;;;5.88;3.63;;;;;;;;;;4983113;28;20077;-57
2021/05/17 08:09:18;;;;;;;9.60;4.90;;;;;;;;;;4991699;28;20430;-57
2021/05/17 08:11:45;;;;;;;5.90;3.95;;;;;;;;;;4990986;28;20030;-57
2021/05/17 08:14:12;;;;;;;6.80;4.57;;;;;;;;;;4993349;28;20038;-57
2021/05/17 08:16:38;;;;;;;5.13;4.00;;;;;;;;;;4991676;28;20081;-58
2021/05/17 08:19:05;;;;;;;5.28;3.22;;;;;;;;;;4992451;28;20029;-57
2021/05/17 08:21:31;;;;;;;8.57;3.53;;;;;;;;;;4993146;28;20046;-57
2021/05/17 08:23:58;;;;;;;8.27;4.63;;;;;;;;;;4993836;28;20485;-58
2021/05/17 08:26:24;;;;;;;4.88;3.88;;;;;;;;;;4987534;28;20042;-57
2021/05/17 08:28:51;;;;;;;8.05;4.53;;;;;;;;;;4993156;28;20029;-58
2021/05/17 08:31:19;;;;;;;4.47;2.33;;;;;;;;;;4993121;28;20117;-57
2021/05/17 08:33:46;;;;;;;2.47;1.73;;;;;;;;;;4992161;28;20476;-58
2021/05/17 08:36:12;;;;;;;3.58;1.92;;;;;;;;;;4992318;28;20069;-58
2021/05/17 08:38:38;;;;;;;3.45;2.60;;;;;;;;;;4991899;28;20026;-58
2021/05/17 08:41:05;;;;;;;4.10;2.00;;;;;;;;;;4991774;28;20026;-58
2021/05/17 08:43:31;;;;;;;4.55;2.88;;;;;;;;;;4992753;28;20046;-58
2021/05/17 08:45:57;;;;;;;5.47;2.72;;;;;;;;;;4993085;28;20030;-58
2021/05/17 08:48:24;;;;;;;1.95;1.40;;;;;;;;;;4993659;28;20034;-58
2021/05/17 08:50:50;;;;;;;3.30;2.38;;;;;;;;;;4991585;28;20116;-57
2021/05/17 08:53:16;;;;;;;4.13;1.85;;;;;;;;;;4992161;28;20401;-58
2021/05/17 08:55:42;;;;;;;2.30;1.52;;;;;;;;;;4991973;28;20510;-57
2021/05/17 08:58:09;;;;;;;1.77;1.00;;;;;;;;;;4992554;28;20050;-57
2021/05/17 09:00:37;;;;;;;4.25;0.98;;;;;;;;;;4993066;28;20038;-57
2021/05/17 09:03:03;;;;;;;2.05;0.80;;;;;;;;;;4990813;28;20046;-56
2021/05/17 09:05:32;;;;;;;1.60;0.90;;;;;;;;;;4992616;28;20022;-57
2021/05/17 09:08:02;;;;;;;2.15;1.02;;;;;;;;;;4990021;28;20029;-58
2021/05/17 09:10:39;;;;;;;3.45;1.00;;;;;;;;;;4992089;28;20034;-58
2021/05/17 09:13:05;;;;;;;0.77;0.75;;;;;;;;;;4990042;28;20026;-58
2021/05/17 09:15:37;;;;;;;3.35;0.90;;;;;;;;;;4992140;28;20030;-57
2021/05/17 09:18:11;;;;;;;2.85;1.10;;;;;;;;;;4990982;28;20034;-57
2021/05/17 09:20:40;;;;;;;2.47;1.00;;;;;;;;;;4991818;28;20035;-57
2021/05/17 09:23:07;;;;;;;1.50;0.90;;;;;;;;;;4991843;28;20112;-58
2021/05/17 09:25:33;;;;;;;1.27;0.82;;;;;;;;;;4991739;28;20030;-58
2021/05/17 09:28:03;;;;;;;2.88;0.70;;;;;;;;;;4992533;28;20088;-58
2021/05/17 09:30:49;;;;;;;1.35;0.70;;;;;;;;;;4990623;28;20425;-58
2021/05/17 09:33:19;;;;;;;1.88;0.63;;;;;;;;;;4992194;28;20031;-58
2021/05/17 09:35:46;;;;;;;1.15;0.73;;;;;;;;;;4991264;28;20030;-57
2021/05/17 09:38:19;;;;;;;1.48;0.70;;;;;;;;;;4988578;28;20027;-57
2021/05/17 09:40:46;;;;;;;0.57;0.50;;;;;;;;;;4973049;28;20034;-57
2021/05/17 09:43:16;;;;;;;2.60;0.80;;;;;;;;;;4972808;28;20047;-57
2021/05/17 09:45:44;;;;;;;1.63;1.00;;;;;;;;;;4990039;28;20034;-57
2021/05/17 09:48:15;;;;;;;1.42;0.88;;;;;;;;;;4992625;28;20312;-59
2021/05/17 09:50:56;;;;;;;0.85;0.63;;;;;;;;;;4991076;28;20030;-56
2021/05/17 09:53:23;;;;;;;1.45;0.60;;;;;;;;;;4973149;28;20510;-57
2021/05/17 09:55:49;;;;;;;1.60;0.60;;;;;;;;;;4991128;28;20022;-58
2021/05/17 09:58:32;;;;;;;1.05;0.55;;;;;;;;;;4992409;28;20019;-58
2021/05/17 10:01:07;;;;;;;1.13;0.50;;;;;;;;;;4989139;28;20031;-57
2021/05/17 10:03:34;;;;;;;1.40;0.95;;;;;;;;;;4992179;28;20048;-58
2021/05/17 10:06:00;;;;;;;1.25;0.60;;;;;;;;;;4992226;28;20033;-58
2021/05/17 10:08:26;;;;;;;1.10;0.50;;;;;;;;;;4990639;28;20030;-58
2021/05/17 10:10:52;;;;;;;1.33;0.50;;;;;;;;;;4992196;28;20031;-58
2021/05/17 10:13:19;;;;;;;0.88;0.50;;;;;;;;;;4990211;28;20502;-58
2021/05/17 10:15:48;;;;;;;0.85;0.47;;;;;;;;;;4990871;28;20375;-58
2021/05/17 10:18:14;;;;;;;0.40;0.40;;;;;;;;;;4992176;28;20041;-57
2021/05/17 10:20:40;;;;;;;0.40;0.40;;;;;;;;;;4989835;28;20034;-58
2021/05/17 10:23:07;;;;;;;1.20;0.50;;;;;;;;;;4985619;28;20057;-58
2021/05/17 10:25:36;;;;;;;1.25;0.47;;;;;;;;;;4991214;28;20034;-60
2021/05/17 10:28:14;;;;;;;0.40;0.40;;;;;;;;;;4991756;28;20030;-58
2021/05/17 10:30:41;;;;;;;0.88;0.38;;;;;;;;;;4990406;28;20117;-57
2021/05/17 10:33:08;;;;;;;1.13;0.70;;;;;;;;;;4985729;28;20030;-58
2021/05/17 10:35:35;;;;;;;1.35;0.85;;;;;;;;;;4991765;28;20015;-58
2021/05/17 10:38:15;;;;;;;1.20;0.80;;;;;;;;;;4995406;28;20033;-58
2021/05/17 10:40:44;;;;;;;2.83;1.30;;;;;;;;;;4995452;28;20136;-58
2021/05/17 10:43:29;;;;;;;3.13;1.20;;;;;;;;;;4994453;28;20491;-58
2021/05/17 10:46:53;;;;;;;1.58;0.85;;;;;;;;;;4993790;28;20073;-58
2021/05/17 10:49:33;;;;;;;1.85;0.70;;;;;;;;;;4992065;28;20034;-58
2021/05/17 10:52:09;;;;;;;3.53;0.50;;;;;;;;;;4934626;29;20435;-58
2021/05/17 10:54:59;;;;;;;0.47;0.47;;;;;;;;;;4935409;29;20126;-57
2021/05/17 10:57:41;;;;;;;0.30;0.30;;;;;;;;;;4922858;29;20050;-58
2021/05/17 11:00:28;;;;;;;3.35;0.40;;;;;;;;;;4934210;29;20040;-58
2021/05/17 11:03:06;;;;;;;1.50;0.50;;;;;;;;;;4934603;29;20090;-58
2021/05/17 11:05:32;;;;;;;1.48;0.22;;;;;;;;;;4918418;29;21027;-58
2021/05/17 11:08:01;;;;;;;1.50;0.40;;;;;;;;;;4923244;29;20180;-59
2021/05/17 11:10:33;;;;;;;1.80;0.32;;;;;;;;;;4918039;29;20539;-59
2021/05/17 11:12:59;;;;;;;2.35;1.42;;;;;;;;;;4938884;29;20433;-57
2021/05/17 11:15:26;;;;;;;3.47;1.50;;;;;;;;;;4934778;29;20241;-58
2021/05/17 11:18:02;;;;;;;6.60;1.40;;;;;;;;;;4917648;29;20031;-59
2021/05/17 11:23:10;;;;;;;2.10;1.10;;;;;;;;;;4931109;29;20134;-57
2021/05/17 11:25:50;;;;;;;1.83;1.30;;;;;;;;;;4934057;29;20115;-59
2021/05/17 11:28:17;;;;;;;1.70;1.30;;;;;;;;;;4971128;28;20034;-58
2021/05/17 11:30:44;;;;;;;1.67;1.20;;;;;;;;;;4993411;28;20034;-58
2021/05/17 11:33:13;;;;;;;1.77;1.10;;;;;;;;;;4992926;28;20038;-59
2021/05/17 11:35:59;;;;;;;4.95;1.20;;;;;;;;;;4993392;28;20033;-59
2021/05/17 11:38:26;;;;;;;3.28;1.30;;;;;;;;;;4995107;28;20074;-61
2021/05/17 11:40:52;;;;;;;2.25;1.25;;;;;;;;;;4995218;28;20485;-58
2021/05/17 11:43:20;;;;;;;3.90;1.05;;;;;;;;;;4993892;28;20140;-58
2021/05/17 11:45:47;;;;;;;2.08;0.80;;;;;;;;;;4995204;28;20560;-58
2021/05/17 11:48:13;;;;;;;2.08;0.88;;;;;;;;;;4994362;28;20054;-58
2021/05/17 11:50:39;;;;;;;3.33;0.88;;;;;;;;;;4993014;28;20031;-61
2021/05/17 11:53:06;;;;;;;1.65;0.93;;;;;;;;;;4994807;28;20023;-58
2021/05/17 11:55:32;;;;;;;1.52;0.65;;;;;;;;;;4987428;28;20026;-57
2021/05/17 11:57:58;;;;;;;1.35;0.70;;;;;;;;;;4979678;28;20101;-59
2021/05/17 12:00:25;;;;;;;1.02;0.57;;;;;;;;;;4993964;28;20046;-59
2021/05/17 12:02:56;;;;;;;1.75;0.90;;;;;;;;;;4994380;28;20129;-60
2021/05/17 12:05:24;;;;;;;1.55;0.80;;;;;;;;;;4993566;28;20069;-59
2021/05/17 12:07:52;;;;;;;1.20;0.63;;;;;;;;;;4992221;28;20061;-59
2021/05/17 12:10:19;;;;;;;1.45;1.00;;;;;;;;;;4994106;28;20065;-59
2021/05/17 12:12:45;;;;;;;1.48;0.73;;;;;;;;;;4993201;28;20027;-59
2021/05/17 12:15:16;;;;;;;2.70;0.80;;;;;;;;;;4975978;28;20601;-60
2021/05/17 12:17:42;;;;;;;1.75;0.60;;;;;;;;;;4984190;28;20500;-58
2021/05/17 12:20:10;;;;;;;0.80;0.70;;;;;;;;;;4981574;28;20501;-58
2021/05/17 12:22:39;;;;;;;2.90;0.90;;;;;;;;;;4957839;28;20410;-58
2021/05/17 12:25:07;;;;;;;1.20;0.90;;;;;;;;;;4993270;28;20347;-59
2021/05/17 12:27:34;;;;;;;1.42;0.70;;;;;;;;;;4985774;28;20410;-58
2021/05/17 12:30:01;;;;;;;1.48;0.80;;;;;;;;;;4992834;28;20149;-59
2021/05/17 12:32:37;;;;;;;1.40;0.73;;;;;;;;;;4991275;28;20092;-58
2021/05/17 12:35:12;;;;;;;1.15;1.00;;;;;;;;;;4992782;28;20022;-58
2021/05/17 12:37:43;;;;;;;2.97;1.35;;;;;;;;;;4992360;28;20031;-59
2021/05/17 12:40:09;;;;;;;1.10;0.80;;;;;;;;;;4990350;28;20109;-59
2021/05/17 12:42:36;;;;;;;0.77;0.77;;;;;;;;;;4991840;28;20054;-59
2021/05/17 12:45:07;;;;;;;0.95;0.85;;;;;;;;;;4990728;28;20019;-59
2021/05/17 12:47:44;;;;;;;1.50;0.70;;;;;;;;;;4991051;28;20096;-58
2021/05/17 12:50:37;;;;;;;1.00;0.95;;;;;;;;;;4990177;28;20023;-59
2021/05/17 12:53:03;;;;;;;;;;;;;;;;;;4986188;28;20068;-58
2021/05/17 12:55:29;;;;;;;0.93;0.65;;;;;;;;;;4991200;28;19913;-59
2021/05/17 12:57:57;;;;;;;1.35;0.63;;;;;;;;;;4991502;28;20109;-58
2021/05/17 13:00:38;;;;;;;1.45;0.60;;;;;;;;;;4984645;28;20089;-58
2021/05/17 13:03:09;;;;;;;0.60;0.60;;;;;;;;;;4991812;28;20119;-58
2021/05/17 13:05:53;;;;;;;1.92;0.50;;;;;;;;;;4989319;28;20092;-58
2021/05/17 13:08:21;;;;;;;1.67;0.70;;;;;;;;;;4991943;28;20081;-58
2021/05/17 13:10:57;;;;;;;1.05;0.77;;;;;;;;;;4991303;28;20032;-58
2021/05/17 13:13:42;;;;;;;0.47;0.47;;;;;;;;;;4986669;28;20046;-58
2021/05/17 13:16:31;;;;;;;0.73;0.70;;;;;;;;;;4992552;28;20509;-57
2021/05/17 13:22:34;;;;;;;0.47;0.47;;;;;;;;;;4991561;28;20080;-59
2021/05/17 13:32:59;;;;;;;1.58;0.60;;;;;;;;;;4989045;28;20085;-58
2021/05/17 13:35:25;;;;;;;1.90;0.60;;;;;;;;;;4992578;28;20026;-59
2021/05/17 13:37:51;;;;;;;0.88;0.50;;;;;;;;;;4991862;28;20027;-58
2021/05/17 13:40:18;;;;;;;0.45;0.32;;;;;;;;;;4991833;28;20554;-59
2021/05/17 13:42:44;;;;;;;0.82;0.47;;;;;;;;;;4991053;28;20057;-58
2021/05/17 13:45:13;;;;;;;0.40;0.38;;;;;;;;;;4990669;28;20053;-59
2021/05/17 13:47:39;;;;;;;0.30;0.30;;;;;;;;;;4991944;28;20029;-58
2021/05/17 13:50:07;;;;;;;0.40;0.40;;;;;;;;;;4992365;28;20029;-58
2021/05/17 13:52:34;;;;;;;1.58;0.70;;;;;;;;;;4991652;28;20022;-58
2021/05/17 13:55:00;;;;;;;0.88;0.45;;;;;;;;;;4990769;28;20389;-58
2021/05/17 13:57:26;;;;;;;5.10;0.50;;;;;;;;;;4990248;28;20088;-58
2021/05/17 13:59:52;;;;;;;1.40;0.50;;;;;;;;;;4991834;28;20478;-59
2021/05/17 14:02:19;;;;;;;1.65;0.50;;;;;;;;;;4991293;28;20390;-58
2021/05/17 14:04:45;;;;;;;1.65;0.82;;;;;;;;;;4991103;28;20141;-58
2021/05/17 14:07:12;;;;;;;0.70;0.70;;;;;;;;;;4994072;28;20121;-59
2021/05/17 14:09:38;;;;;;;1.67;0.70;;;;;;;;;;4995710;28;20030;-58
2021/05/17 14:12:04;;;;;;;1.40;0.82;;;;;;;;;;4995381;28;20068;-58
2021/05/17 14:14:31;;;;;;;1.70;0.90;;;;;;;;;;4996291;28;20057;-59
2021/05/17 14:16:57;;;;;;;1.23;0.80;;;;;;;;;;4995469;28;20101;-58
2021/05/17 14:19:29;;;;;;;1.17;0.77;;;;;;;;;;4996071;28;20026;-58
2021/05/17 14:21:55;;;;;;;1.15;0.90;;;;;;;;;;4987069;28;20026;-58
2021/05/17 14:24:22;;;;;;;1.20;0.80;;;;;;;;;;4995808;28;20039;-58
2021/05/17 14:26:48;;;;;;;1.95;1.85;;;;;;;;;;4995514;28;20117;-58
2021/05/17 14:29:15;;;;;;;4.28;0.90;;;;;;;;;;4994943;28;20030;-58
2021/05/17 14:31:41;;;;;;;0.93;0.80;;;;;;;;;;4993670;28;20034;-59
2021/05/17 14:34:08;;;;;;;1.88;0.68;;;;;;;;;;4977894;28;20462;-58
2021/05/17 14:36:35;;;;;;;1.75;0.60;;;;;;;;;;4994284;28;20117;-59
2021/05/17 14:39:01;;;;;;;1.13;0.70;;;;;;;;;;4995332;28;20042;-59
2021/05/17 14:41:28;;;;;;;2.72;0.80;;;;;;;;;;4995594;28;20052;-58
2021/05/17 14:43:54;;;;;;;0.60;0.50;;;;;;;;;;4994322;28;20508;-58
2021/05/17 14:46:20;;;;;;;1.00;0.70;;;;;;;;;;4994013;28;20386;-58
2021/05/17 14:48:47;;;;;;;1.20;0.50;;;;;;;;;;4993597;28;20034;-59
2021/05/17 14:51:13;;;;;;;1.30;0.65;;;;;;;;;;4995288;28;20023;-58
2021/05/17 14:53:40;;;;;;;1.95;0.70;;;;;;;;;;4994345;28;20088;-58
2021/05/17 14:56:06;;;;;;;0.98;0.52;;;;;;;;;;4994782;28;20019;-59
2021/05/17 14:58:33;;;;;;;1.92;0.60;;;;;;;;;;4995753;28;20018;-57
2021/05/17 15:01:00;;;;;;;1.02;0.73;;;;;;;;;;4994579;28;20462;-59
2021/05/17 15:03:27;;;;;;;0.40;0.40;;;;;;;;;;4985913;28;20410;-58
2021/05/17 15:05:54;;;;;;;1.90;0.60;;;;;;;;;;4982718;28;20032;-59
2021/05/17 15:08:20;;;;;;;0.98;0.63;;;;;;;;;;4994897;28;20015;-58
2021/05/17 15:10:46;;;;;;;2.88;0.38;;;;;;;;;;4995031;28;20019;-58
2021/05/17 15:13:12;;;;;;;1.15;0.43;;;;;;;;;;4993090;28;20493;-58